Time;durP1;ratioP1;P1;durP2;ratioP2;P2;SDS_P1;SDS_P2;PMS_P1;PMS_P2;Temp;Humidity;BMP_temperature;BMP_pressure;BME280_temperature;BME280_humidity;BME280_pressure;Samples;Min_cycle;Max_cycle;Signal;HPM_P1;HPM_P2
2023/07/01 05:35:49;;;;;;;2.50;2.40;;;;;;;27.42;54.91;99395.30;85687;1305;545163;-65
2023/07/01 05:37:54;;;;;;;1.70;1.70;;;;;;;27.38;55.35;99399.20;87215;1283;138090;-65
2023/07/01 05:39:56;;;;;;;2.30;2.20;;;;;;;27.30;55.57;99402.53;87247;1285;22542;-67
2023/07/01 05:41:58;;;;;;;2.20;2.00;;;;;;;27.20;56.48;99400.02;87353;1285;136623;-65
2023/07/01 05:43:59;;;;;;;2.10;2.00;;;;;;;27.20;57.27;99403.02;87239;1285;22722;-66
2023/07/01 05:46:05;;;;;;;1.80;1.70;;;;;;;27.39;56.46;99404.42;87211;1285;22654;-64
2023/07/01 05:48:07;;;;;;;2.40;1.60;;;;;;;27.63;56.17;99405.67;87096;1285;136658;-63
2023/07/01 05:50:09;;;;;;;1.90;1.80;;;;;;;27.91;56.23;99402.34;87200;1283;214489;-63
2023/07/01 05:52:10;;;;;;;1.90;1.70;;;;;;;28.18;54.04;99401.77;87782;1275;137312;-64
2023/07/01 05:54:12;;;;;;;3.50;1.40;;;;;;;28.30;53.55;99399.35;87775;1276;22538;-64
2023/07/01 05:56:15;;;;;;;1.90;1.90;;;;;;;28.38;53.84;99400.35;87656;1275;138401;-64
2023/07/01 05:58:17;;;;;;;2.00;1.60;;;;;;;28.41;52.90;99399.72;87818;1275;24194;-61
2023/07/01 06:00:19;;;;;;;2.40;1.40;;;;;;;28.30;52.92;99402.06;87588;1276;140192;-64
2023/07/01 06:02:21;;;;;;;2.00;1.90;;;;;;;28.14;54.71;99399.72;87799;1275;25360;-63
2023/07/01 06:04:23;;;;;;;2.20;2.00;;;;;;;28.15;55.97;99395.52;87766;1275;137322;-65
2023/07/01 06:06:25;;;;;;;1.70;1.60;;;;;;;28.34;54.95;99393.46;87805;1259;22568;-64
2023/07/01 06:08:27;;;;;;;2.60;1.90;;;;;;;28.53;53.23;99394.23;87675;1276;137003;-63
2023/07/01 06:10:29;;;;;;;1.80;1.70;;;;;;;28.59;52.66;99394.71;87692;1262;25482;-64
2023/07/01 06:12:30;;;;;;;2.80;1.70;;;;;;;28.63;52.81;99398.63;87692;1275;137109;-65
2023/07/01 06:14:32;;;;;;;1.40;1.30;;;;;;;28.61;52.48;99388.48;87677;1273;24213;-64
2023/07/01 06:16:34;;;;;;;1.70;1.30;;;;;;;28.71;52.33;99396.12;87640;1274;137020;-63
2023/07/01 06:18:36;;;;;;;1.70;1.60;;;;;;;28.65;51.72;99397.39;87992;1275;24234;-65
2023/07/01 06:20:37;;;;;;;1.60;1.50;;;;;;;28.62;52.65;99397.73;87649;1276;138162;-65
2023/07/01 06:22:39;;;;;;;2.30;2.20;;;;;;;28.72;52.37;99397.02;87892;1275;25275;-63
2023/07/01 06:24:41;;;;;;;1.80;1.70;;;;;;;28.79;51.72;99398.01;87783;1277;138378;-64
2023/07/01 06:26:43;;;;;;;1.90;1.70;;;;;;;28.82;51.72;99394.27;87807;1275;25405;-64
2023/07/01 06:28:45;;;;;;;2.20;1.90;;;;;;;28.85;52.12;99391.95;87631;1274;137114;-65
2023/07/01 06:30:47;;;;;;;5.10;2.10;;;;;;;28.80;50.79;99392.87;87866;1276;22753;-65
2023/07/01 06:32:49;;;;;;;2.40;2.20;;;;;;;28.66;51.36;99393.57;87611;1270;137792;-64
2023/07/01 06:34:51;;;;;;;2.40;2.00;;;;;;;28.60;52.92;99395.68;87851;1270;24180;-65
2023/07/01 06:36:53;;;;;;;1.70;1.60;;;;;;;28.70;53.05;99395.08;87671;1267;137853;-65
2023/07/01 06:38:54;;;;;;;2.30;1.70;;;;;;;28.89;53.30;99391.48;87748;1276;22662;-65
2023/07/01 17:53:32;;;;;;;6.20;2.50;;;;;;;24.82;67.09;99253.00;85660;1301;545086;-71
2023/07/01 17:55:34;;;;;;;5.30;2.90;;;;;;;24.84;67.18;99256.88;87305;1281;24572;-72
2023/07/01 17:57:36;;;;;;;5.00;2.50;;;;;;;24.82;67.23;99254.04;87248;1283;138461;-71
2023/07/01 17:59:55;;;;;;;5.30;4.70;;;;;;;24.78;67.36;99252.20;87759;1276;24220;-71
2023/07/01 18:01:57;;;;;;;6.90;4.40;;;;;;;24.72;67.91;99256.89;87591;1277;136872;-70
2023/07/01 18:03:59;;;;;;;5.90;3.00;;;;;;;24.70;68.33;99256.02;87793;1281;22651;-71
2023/07/01 18:06:01;;;;;;;4.30;2.90;;;;;;;24.66;68.54;99260.63;87793;1276;137800;-72
2023/07/01 18:08:04;;;;;;;3.00;2.40;;;;;;;24.61;68.72;99266.90;87447;1276;497031;-74
2023/07/01 18:10:06;;;;;;;3.50;1.90;;;;;;;24.59;69.04;99266.73;87876;1272;22582;-71
